createdAt,value
2019-03-17T00:00:09.961Z,83.93
2019-03-17T00:00:44.905Z,83.99
2019-03-17T00:01:17.957Z,83.94
2019-03-17T00:01:57.223Z,84.01
2019-03-17T00:02:23.382Z,84.02
2019-03-17T00:02:54.560Z,84.03
2019-03-17T00:03:25.744Z,84.03
2019-03-17T00:03:56.900Z,84.08
2019-03-17T00:04:31.714Z,84.10
2019-03-17T00:05:01.308Z,84.15
2019-03-17T00:05:32.448Z,84.15
2019-03-17T00:06:03.617Z,84.17
2019-03-17T00:06:34.836Z,84.25
2019-03-17T00:07:05.993Z,84.25
2019-03-17T00:07:37.199Z,84.22
2019-03-17T00:08:08.377Z,84.18
2019-03-17T00:08:39.528Z,84.18
2019-03-17T00:09:10.697Z,84.42
2019-03-17T00:09:41.890Z,84.34
2019-03-17T00:10:13.282Z,84.34
2019-03-17T00:10:44.524Z,84.47
2019-03-17T00:11:15.731Z,84.45
2019-03-17T00:11:46.919Z,84.45
2019-03-17T00:12:18.095Z,84.42
2019-03-17T00:12:49.306Z,84.42
2019-03-17T00:13:20.516Z,84.42
2019-03-17T00:13:51.778Z,84.33
2019-03-17T00:14:22.984Z,84.39
2019-03-17T00:15:04.577Z,84.39
2019-03-17T00:15:27.253Z,84.32
2019-03-17T00:15:58.415Z,84.69
2019-03-17T00:16:30.700Z,84.48
2019-03-17T00:17:01.885Z,84.54
2019-03-17T00:17:33.083Z,84.54
2019-03-17T00:18:04.351Z,84.54
2019-03-17T00:18:35.545Z,84.87
2019-03-17T00:19:06.695Z,84.67
2019-03-17T00:19:37.905Z,84.74
2019-03-17T00:20:09.067Z,84.75
2019-03-17T00:20:40.286Z,84.64
2019-03-17T00:21:11.440Z,84.64
2019-03-17T00:21:42.648Z,84.56
2019-03-17T00:22:13.802Z,84.39
2019-03-17T00:22:45.052Z,84.39
2019-03-17T00:23:17.215Z,84.46
2019-03-17T00:23:48.421Z,84.38
2019-03-17T00:24:19.587Z,84.60
2019-03-17T00:24:51.808Z,84.46
2019-03-17T00:25:22.995Z,84.55
2019-03-17T00:25:54.204Z,84.55
2019-03-17T00:26:25.362Z,84.48
2019-03-17T00:26:56.582Z,84.39
2019-03-17T00:27:27.832Z,84.42
2019-03-17T00:27:59.046Z,84.36
2019-03-17T00:28:30.246Z,84.39
2019-03-17T00:29:01.536Z,84.35
2019-03-17T00:29:32.769Z,84.40
2019-03-17T00:30:08.147Z,84.40
2019-03-17T00:30:39.377Z,84.28
2019-03-17T00:31:22.884Z,84.13
2019-03-17T00:31:43.759Z,84.55
2019-03-17T00:32:14.993Z,84.55
2019-03-17T00:32:46.247Z,84.24
2019-03-17T00:33:17.499Z,84.42
2019-03-17T00:33:48.721Z,84.50
2019-03-17T00:34:19.947Z,84.30
2019-03-17T00:34:51.238Z,84.30
2019-03-17T00:35:22.413Z,84.34
2019-03-17T00:35:53.662Z,84.30
2019-03-17T00:36:24.855Z,84.46
2019-03-17T00:36:56.073Z,84.46
2019-03-17T00:37:27.241Z,84.40
2019-03-17T00:37:58.475Z,84.26
2019-03-17T00:38:29.681Z,84.21
2019-03-17T00:39:00.911Z,84.22
2019-03-17T00:39:32.068Z,84.22
2019-03-17T00:40:06.730Z,84.20
2019-03-17T00:40:37.883Z,84.20
2019-03-17T00:41:09.101Z,84.23
2019-03-17T00:41:40.254Z,84.05
2019-03-17T00:42:11.508Z,84.31
2019-03-17T00:42:42.669Z,84.31
2019-03-17T00:43:13.882Z,84.23
2019-03-17T00:43:45.055Z,84.40
2019-03-17T00:44:16.299Z,84.40
2019-03-17T00:44:47.519Z,84.29
2019-03-17T00:45:18.752Z,84.19
2019-03-17T00:45:49.985Z,84.19
2019-03-17T00:46:21.223Z,84.42
2019-03-17T00:46:52.388Z,84.21
2019-03-17T00:47:23.624Z,84.30
2019-03-17T00:47:54.788Z,84.63
2019-03-17T00:48:26.005Z,84.63
2019-03-17T00:48:57.240Z,84.26
2019-03-17T00:49:28.423Z,84.56
2019-03-17T00:49:59.621Z,84.12
2019-03-17T00:50:30.824Z,84.69
2019-03-17T00:51:02.018Z,84.55
2019-03-17T00:51:33.228Z,84.69
2019-03-17T00:52:04.502Z,84.69
2019-03-17T00:52:35.683Z,84.83
2019-03-17T00:53:06.874Z,84.61
2019-03-17T00:53:38.064Z,84.72
2019-03-17T00:54:09.316Z,84.46
2019-03-17T00:54:40.544Z,84.46
2019-03-17T00:55:11.731Z,84.77
2019-03-17T00:55:42.903Z,84.77
2019-03-17T00:56:14.104Z,84.94
2019-03-17T00:56:45.280Z,85.26
2019-03-17T00:57:16.520Z,84.99
2019-03-17T00:57:47.741Z,85.12
2019-03-17T00:58:18.920Z,85.12
2019-03-17T00:58:50.100Z,85.07
2019-03-17T00:59:21.351Z,85.11
2019-03-17T00:59:52.543Z,84.61
2019-03-17T01:00:23.763Z,85.10
2019-03-17T01:00:55.022Z,85.23
2019-03-17T01:01:26.213Z,85.23
2019-03-17T01:01:57.387Z,85.08
2019-03-17T01:02:28.574Z,84.97
2019-03-17T01:02:59.782Z,85.16
2019-03-17T01:03:30.971Z,85.16
2019-03-17T01:04:02.255Z,85.29
2019-03-17T01:04:33.399Z,85.35
2019-03-17T01:05:04.701Z,85.39
2019-03-17T01:05:36.867Z,85.25
2019-03-17T01:06:08.071Z,85.70
2019-03-17T01:06:39.219Z,85.42
2019-03-17T01:07:10.425Z,85.47
2019-03-17T01:07:41.583Z,85.64
2019-03-17T01:08:12.791Z,85.53
2019-03-17T01:08:43.956Z,85.53
2019-03-17T01:09:15.251Z,85.65
2019-03-17T01:09:46.445Z,85.41
2019-03-17T01:10:18.669Z,85.69
2019-03-17T01:10:49.827Z,85.77
2019-03-17T01:11:21.061Z,85.61
2019-03-17T01:11:52.215Z,85.61
2019-03-17T01:12:23.534Z,85.50
2019-03-17T01:12:54.666Z,85.67
2019-03-17T01:13:25.864Z,85.67
2019-03-17T01:13:57.020Z,85.62
2019-03-17T01:14:28.462Z,85.78
2019-03-17T01:14:59.628Z,85.64
2019-03-17T01:15:30.834Z,86.12
2019-03-17T01:16:02.028Z,85.48
2019-03-17T01:16:33.223Z,85.48
2019-03-17T01:17:04.385Z,86.00
2019-03-17T01:17:35.589Z,85.93
2019-03-17T01:18:06.762Z,85.77
2019-03-17T01:18:37.975Z,85.73
2019-03-17T01:19:09.200Z,85.97
2019-03-17T01:19:40.369Z,85.97
2019-03-17T01:20:11.562Z,86.02
2019-03-17T01:20:42.742Z,86.02
2019-03-17T01:21:13.943Z,85.87
2019-03-17T01:21:45.116Z,85.87
2019-03-17T01:22:16.345Z,86.09
2019-03-17T01:22:47.533Z,86.12
2019-03-17T01:23:18.715Z,86.12
2019-03-17T01:23:49.919Z,86.36
2019-03-17T01:24:21.107Z,86.12
2019-03-17T01:24:53.307Z,85.95
2019-03-17T01:25:24.754Z,86.08
2019-03-17T01:25:55.945Z,85.94
2019-03-17T01:26:27.131Z,86.00
2019-03-17T01:26:58.410Z,86.17
2019-03-17T01:27:30.627Z,86.17
2019-03-17T01:28:01.900Z,86.17
2019-03-17T01:28:33.149Z,86.17
2019-03-17T01:29:04.333Z,86.18
2019-03-17T01:29:35.507Z,86.21
2019-03-17T01:30:09.743Z,86.02
2019-03-17T01:30:41.927Z,86.02
2019-03-17T01:31:13.111Z,86.18
2019-03-17T01:31:44.291Z,86.21
2019-03-17T01:32:15.485Z,86.20
2019-03-17T01:32:46.680Z,86.23
2019-03-17T01:33:17.864Z,86.23
2019-03-17T01:33:49.055Z,86.16
2019-03-17T01:34:20.306Z,86.16
2019-03-17T01:34:51.579Z,86.50
2019-03-17T01:35:22.835Z,86.50
2019-03-17T01:35:54.030Z,86.36
2019-03-17T01:36:25.456Z,86.34
2019-03-17T01:36:56.612Z,86.17
2019-03-17T01:37:27.838Z,86.24
2019-03-17T01:37:59.008Z,86.62
2019-03-17T01:38:31.210Z,86.62
2019-03-17T01:39:04.588Z,86.39
2019-03-17T01:39:35.809Z,86.43
2019-03-17T01:40:09.156Z,86.43
2019-03-17T01:40:40.356Z,86.47
2019-03-17T01:41:11.516Z,86.43
2019-03-17T01:41:42.725Z,86.52
2019-03-17T01:42:13.890Z,86.24
2019-03-17T01:42:45.103Z,86.71
2019-03-17T01:43:16.270Z,86.86
2019-03-17T01:43:47.468Z,86.86
2019-03-17T01:44:18.679Z,86.58
2019-03-17T01:44:49.895Z,86.68
2019-03-17T01:45:21.042Z,86.68
2019-03-17T01:45:52.252Z,86.55
2019-03-17T01:46:23.421Z,86.66
2019-03-17T01:46:54.937Z,86.66
2019-03-17T01:47:27.746Z,86.66
2019-03-17T01:47:59.203Z,86.80
2019-03-17T01:48:31.381Z,86.68
2019-03-17T01:49:02.655Z,86.68
2019-03-17T01:49:33.869Z,86.63
2019-03-17T01:50:06.941Z,86.93
2019-03-17T01:50:38.143Z,86.93
2019-03-17T01:51:09.293Z,86.62
2019-03-17T01:51:40.515Z,86.54
2019-03-17T01:52:11.687Z,86.44
2019-03-17T01:52:42.874Z,86.63
2019-03-17T01:53:14.031Z,86.63
2019-03-17T01:53:45.255Z,86.81
2019-03-17T01:54:16.455Z,86.58
2019-03-17T01:54:47.679Z,86.46
2019-03-17T01:55:18.841Z,86.46
2019-03-17T01:55:51.043Z,86.60
2019-03-17T01:56:22.186Z,86.60
2019-03-17T01:56:53.393Z,86.42
2019-03-17T01:57:24.874Z,86.42
2019-03-17T01:57:56.095Z,86.39
2019-03-17T01:58:27.262Z,86.39
2019-03-17T01:58:58.455Z,86.39
2019-03-17T01:59:29.621Z,86.47
2019-03-17T02:00:00.874Z,86.47
2019-03-17T02:00:32.030Z,86.54
2019-03-17T02:01:03.252Z,86.49
2019-03-17T02:01:34.418Z,86.46
2019-03-17T02:02:05.628Z,86.19
2019-03-17T02:02:36.833Z,86.45
2019-03-17T02:03:08.084Z,86.45
2019-03-17T02:03:39.245Z,86.44
2019-03-17T02:04:10.454Z,86.39
2019-03-17T02:04:41.653Z,86.40
2019-03-17T02:05:21.949Z,86.37
2019-03-17T02:05:46.036Z,86.07
2019-03-17T02:06:17.282Z,86.20
2019-03-17T02:06:48.524Z,86.33
2019-03-17T02:07:19.765Z,86.33
2019-03-17T02:07:50.988Z,86.36
2019-03-17T02:08:22.240Z,86.36
2019-03-17T02:08:53.477Z,86.37
2019-03-17T02:09:25.017Z,86.20
2019-03-17T02:09:56.225Z,86.32
2019-03-17T02:10:27.402Z,86.57
2019-03-17T02:10:58.628Z,86.12
2019-03-17T02:11:29.792Z,86.59
2019-03-17T02:12:00.997Z,86.59
2019-03-17T02:12:32.167Z,86.48
2019-03-17T02:13:03.398Z,86.13
2019-03-17T02:13:34.545Z,86.09
2019-03-17T02:14:05.757Z,86.09
2019-03-17T02:14:36.910Z,85.82
2019-03-17T02:15:08.220Z,86.27
2019-03-17T02:15:39.415Z,86.27
2019-03-17T02:16:10.681Z,86.02
2019-03-17T02:16:41.826Z,86.02
2019-03-17T02:17:13.152Z,85.99
2019-03-17T02:17:44.325Z,86.25
2019-03-17T02:18:15.543Z,86.25
2019-03-17T02:18:46.702Z,86.11
2019-03-17T02:19:17.919Z,85.99
2019-03-17T02:19:49.133Z,85.85
2019-03-17T02:20:20.391Z,85.85
2019-03-17T02:20:51.553Z,86.01
2019-03-17T02:21:22.762Z,86.05
2019-03-17T02:21:53.930Z,85.94
2019-03-17T02:22:25.496Z,85.94
2019-03-17T02:22:56.762Z,85.94
2019-03-17T02:23:28.226Z,85.96
2019-03-17T02:24:00.364Z,86.12
2019-03-17T02:24:31.576Z,85.95
2019-03-17T02:25:04.152Z,85.73
2019-03-17T02:25:35.416Z,85.73
2019-03-17T02:26:06.659Z,85.80
2019-03-17T02:26:37.936Z,86.09
2019-03-17T02:27:09.167Z,86.09
2019-03-17T02:27:40.402Z,85.84
2019-03-17T02:28:11.636Z,85.84
2019-03-17T02:28:42.868Z,86.13
2019-03-17T02:29:14.152Z,86.13
2019-03-17T02:29:45.393Z,85.80
2019-03-17T02:30:16.614Z,85.83
2019-03-17T02:30:47.799Z,85.57
2019-03-17T02:31:19.052Z,85.57
2019-03-17T02:31:50.268Z,85.80
2019-03-17T02:32:22.499Z,85.60
2019-03-17T02:32:53.762Z,85.60
2019-03-17T02:33:25.286Z,85.69
2019-03-17T02:33:56.437Z,85.68
2019-03-17T02:34:27.689Z,85.68
2019-03-17T02:34:58.829Z,85.68
2019-03-17T02:35:38.747Z,85.79
2019-03-17T02:36:03.130Z,85.85
2019-03-17T02:36:35.351Z,85.85
2019-03-17T02:37:06.519Z,85.64
2019-03-17T02:37:37.712Z,85.70
2019-03-17T02:38:09.865Z,85.70
2019-03-17T02:38:41.074Z,85.54
2019-03-17T02:39:12.231Z,85.65
2019-03-17T02:39:43.458Z,85.50
2019-03-17T02:40:14.703Z,85.57
2019-03-17T02:40:46.027Z,85.70
2019-03-17T02:41:17.263Z,85.70
2019-03-17T02:41:48.491Z,85.56
2019-03-17T02:42:19.827Z,85.56
2019-03-17T02:42:52.083Z,85.50
2019-03-17T02:43:23.309Z,85.58
2019-03-17T02:43:54.918Z,85.58
2019-03-17T02:44:26.163Z,85.49
2019-03-17T02:44:57.691Z,85.56
2019-03-17T02:45:28.890Z,85.48
2019-03-17T02:46:02.853Z,85.48
2019-03-17T02:46:33.164Z,85.21
2019-03-17T02:47:04.327Z,85.21
2019-03-17T02:47:35.530Z,85.49
2019-03-17T02:48:06.713Z,85.24
2019-03-17T02:48:37.937Z,85.24
2019-03-17T02:49:09.188Z,85.46
2019-03-17T02:49:40.460Z,85.50
2019-03-17T02:50:11.652Z,85.47
2019-03-17T02:50:42.805Z,85.27
2019-03-17T02:51:14.006Z,85.27
2019-03-17T02:51:45.182Z,85.22
2019-03-17T02:52:16.480Z,85.45
2019-03-17T02:52:47.665Z,85.41
2019-03-17T02:53:18.889Z,85.43
2019-03-17T02:53:50.068Z,85.58
2019-03-17T02:54:21.364Z,85.37
2019-03-17T02:54:52.514Z,85.37
2019-03-17T02:55:23.740Z,85.40
2019-03-17T02:55:54.939Z,85.40
2019-03-17T02:56:26.153Z,85.40
2019-03-17T02:56:57.299Z,85.41
2019-03-17T02:57:28.516Z,85.37
2019-03-17T02:57:59.668Z,85.38
2019-03-17T02:58:30.876Z,85.41
2019-03-17T02:59:02.058Z,85.41
2019-03-17T02:59:33.281Z,85.43
2019-03-17T03:00:08.643Z,85.28
2019-03-17T03:00:39.834Z,85.28
2019-03-17T03:01:11.049Z,85.37
2019-03-17T03:01:42.211Z,85.32
2019-03-17T03:02:13.388Z,85.36
2019-03-17T03:02:44.581Z,85.39
2019-03-17T03:03:15.764Z,85.36
2019-03-17T03:03:46.942Z,85.27
2019-03-17T03:04:18.131Z,85.35
2019-03-17T03:04:49.311Z,85.47
2019-03-17T03:05:20.535Z,85.51
2019-03-17T03:05:55.122Z,85.37
2019-03-17T03:06:24.895Z,85.43
2019-03-17T03:06:56.090Z,85.26
2019-03-17T03:07:27.697Z,85.52
2019-03-17T03:07:58.853Z,85.52
2019-03-17T03:08:31.083Z,85.61
2019-03-17T03:09:05.147Z,85.27
2019-03-17T03:09:36.388Z,85.31
2019-03-17T03:10:07.607Z,85.24
2019-03-17T03:10:38.808Z,85.24
2019-03-17T03:11:09.956Z,85.29
2019-03-17T03:11:41.158Z,85.24
2019-03-17T03:12:12.316Z,85.46
2019-03-17T03:12:43.525Z,85.46
2019-03-17T03:13:14.711Z,85.47
2019-03-17T03:13:46.008Z,85.47
2019-03-17T03:14:17.168Z,85.11
2019-03-17T03:14:48.472Z,85.11
2019-03-17T03:15:19.654Z,85.26
2019-03-17T03:15:50.855Z,85.32
2019-03-17T03:16:22.020Z,85.34
2019-03-17T03:16:53.372Z,85.30
2019-03-17T03:17:24.872Z,85.27
2019-03-17T03:17:56.166Z,85.13
2019-03-17T03:18:27.692Z,85.13
2019-03-17T03:18:58.934Z,85.17
2019-03-17T03:19:30.078Z,85.17
2019-03-17T03:20:01.263Z,85.36
2019-03-17T03:20:32.441Z,85.35
2019-03-17T03:21:03.626Z,85.35
2019-03-17T03:21:34.804Z,85.35
2019-03-17T03:22:06.073Z,85.46
2019-03-17T03:22:37.290Z,85.46
2019-03-17T03:23:08.502Z,85.24
2019-03-17T03:23:39.678Z,85.24
2019-03-17T03:24:10.858Z,85.62
2019-03-17T03:24:42.042Z,85.41
2019-03-17T03:25:13.246Z,85.69
2019-03-17T03:25:44.442Z,85.18
2019-03-17T03:26:15.599Z,85.53
2019-03-17T03:26:46.813Z,85.34
2019-03-17T03:27:17.988Z,85.28
2019-03-17T03:27:49.201Z,85.28
2019-03-17T03:28:20.575Z,85.44
2019-03-17T03:28:51.768Z,85.43
2019-03-17T03:29:22.929Z,85.46
2019-03-17T03:29:54.139Z,85.47
2019-03-17T03:30:25.306Z,85.45
2019-03-17T03:30:56.533Z,85.20
2019-03-17T03:31:27.801Z,85.20
2019-03-17T03:31:59.047Z,85.60
2019-03-17T03:32:30.282Z,85.41
2019-03-17T03:33:01.475Z,85.41
2019-03-17T03:33:32.639Z,85.49
2019-03-17T03:34:03.967Z,85.29
2019-03-17T03:34:35.210Z,85.47
2019-03-17T03:35:07.992Z,85.69
2019-03-17T03:35:39.265Z,85.69
2019-03-17T03:36:11.866Z,85.51
2019-03-17T03:36:43.382Z,85.51
2019-03-17T03:37:14.589Z,85.37
2019-03-17T03:37:45.747Z,85.43
2019-03-17T03:38:16.949Z,85.43
2019-03-17T03:38:48.114Z,85.34
2019-03-17T03:39:19.349Z,85.34
2019-03-17T03:39:50.593Z,85.37
2019-03-17T03:40:21.803Z,85.45
2019-03-17T03:40:52.986Z,85.73
2019-03-17T03:41:24.178Z,85.46
2019-03-17T03:41:56.472Z,85.46
2019-03-17T03:42:27.806Z,85.55
2019-03-17T03:42:58.974Z,85.54
2019-03-17T03:43:30.157Z,85.54
2019-03-17T03:44:01.326Z,85.45
2019-03-17T03:44:32.505Z,85.54
2019-03-17T03:45:11.365Z,85.59
2019-03-17T03:45:42.554Z,85.58
2019-03-17T03:46:13.729Z,85.58
2019-03-17T03:46:44.907Z,85.62
2019-03-17T03:47:16.091Z,85.67
2019-03-17T03:47:47.281Z,85.48
2019-03-17T03:48:18.505Z,85.68
2019-03-17T03:48:49.717Z,85.63
2019-03-17T03:49:20.942Z,85.83
2019-03-17T03:49:52.119Z,85.83
2019-03-17T03:50:23.325Z,85.72
2019-03-17T03:50:54.761Z,85.70
2019-03-17T03:51:26.013Z,85.66
2019-03-17T03:51:57.201Z,85.60
2019-03-17T03:52:28.403Z,85.61
2019-03-17T03:53:00.596Z,85.58
2019-03-17T03:53:31.797Z,85.40
2019-03-17T03:54:02.998Z,85.40
2019-03-17T03:54:34.262Z,85.65
2019-03-17T03:55:07.178Z,85.73
2019-03-17T03:55:41.923Z,85.73
2019-03-17T03:56:11.444Z,85.64
2019-03-17T03:56:42.614Z,85.62
2019-03-17T03:57:14.818Z,85.42
2019-03-17T03:57:45.999Z,85.42
2019-03-17T03:58:17.164Z,85.69
2019-03-17T03:58:48.348Z,85.65
2019-03-17T03:59:19.524Z,85.65
2019-03-17T03:59:50.716Z,85.31
2019-03-17T04:00:21.888Z,85.31
2019-03-17T04:00:53.073Z,85.59
2019-03-17T04:01:24.248Z,85.57
2019-03-17T04:01:55.430Z,85.56
2019-03-17T04:02:26.608Z,85.56
2019-03-17T04:02:57.827Z,85.51
2019-03-17T04:03:29.000Z,85.54
2019-03-17T04:04:00.181Z,85.70
2019-03-17T04:04:31.370Z,85.70
2019-03-17T04:05:04.649Z,85.49
2019-03-17T04:05:35.838Z,85.55
2019-03-17T04:06:07.041Z,85.34
2019-03-17T04:06:38.186Z,85.48
2019-03-17T04:07:09.393Z,85.33
2019-03-17T04:07:40.548Z,85.33
2019-03-17T04:08:11.746Z,85.48
2019-03-17T04:08:42.912Z,85.41
2019-03-17T04:09:14.130Z,85.38
2019-03-17T04:09:45.425Z,85.40
2019-03-17T04:10:16.633Z,85.27
2019-03-17T04:10:47.783Z,85.27
2019-03-17T04:11:19.082Z,85.36
2019-03-17T04:11:50.247Z,85.36
2019-03-17T04:12:21.486Z,85.38
2019-03-17T04:12:52.644Z,85.38
2019-03-17T04:13:23.845Z,85.14
2019-03-17T04:13:55.059Z,85.06
2019-03-17T04:14:26.274Z,85.06
2019-03-17T04:14:57.804Z,85.36
2019-03-17T04:15:29.011Z,85.13
2019-03-17T04:16:00.170Z,85.28
2019-03-17T04:16:31.385Z,85.28
2019-03-17T04:17:02.588Z,85.24
2019-03-17T04:17:33.802Z,85.07
2019-03-17T04:18:05.112Z,85.07
2019-03-17T04:18:36.292Z,85.07
2019-03-17T04:19:07.503Z,85.07
2019-03-17T04:19:38.656Z,85.33
2019-03-17T04:20:10.633Z,85.33
2019-03-17T04:20:42.086Z,85.28
2019-03-17T04:21:13.317Z,85.28
2019-03-17T04:21:44.505Z,85.26
2019-03-17T04:22:15.686Z,85.16
2019-03-17T04:22:46.894Z,85.18
2019-03-17T04:23:18.135Z,85.21
2019-03-17T04:23:49.322Z,85.11
2019-03-17T04:24:20.522Z,85.19
2019-03-17T04:24:51.713Z,85.19
2019-03-17T04:25:22.907Z,84.84
2019-03-17T04:25:54.088Z,84.98
2019-03-17T04:26:25.426Z,85.18
2019-03-17T04:26:56.589Z,85.14
2019-03-17T04:27:27.820Z,84.78
2019-03-17T04:27:58.972Z,84.78
2019-03-17T04:28:30.242Z,85.13
2019-03-17T04:29:01.410Z,85.04
2019-03-17T04:29:32.622Z,85.04
2019-03-17T04:30:07.893Z,84.94
2019-03-17T04:30:39.152Z,85.01
2019-03-17T04:31:14.122Z,85.01
2019-03-17T04:31:43.403Z,85.01
2019-03-17T04:32:14.567Z,84.77
2019-03-17T04:32:46.766Z,85.08
2019-03-17T04:33:17.965Z,84.93
2019-03-17T04:33:49.162Z,84.93
2019-03-17T04:34:20.333Z,85.03
2019-03-17T04:34:51.542Z,85.08
2019-03-17T04:35:22.703Z,85.08
2019-03-17T04:35:53.927Z,84.96
2019-03-17T04:36:39.163Z,84.85
2019-03-17T04:36:58.386Z,84.56
2019-03-17T04:37:29.553Z,84.56
2019-03-17T04:38:00.720Z,85.02
2019-03-17T04:38:31.944Z,84.89
2019-03-17T04:39:04.988Z,84.75
2019-03-17T04:39:36.146Z,84.68
2019-03-17T04:40:08.161Z,84.67
2019-03-17T04:40:39.400Z,84.88
2019-03-17T04:41:10.666Z,84.78
2019-03-17T04:41:41.839Z,84.73
2019-03-17T04:42:13.024Z,85.10
2019-03-17T04:42:45.184Z,85.10
2019-03-17T04:43:16.412Z,84.83
2019-03-17T04:43:47.658Z,84.53
2019-03-17T04:44:21.049Z,84.53
2019-03-17T04:44:51.894Z,84.77
2019-03-17T04:45:23.054Z,84.62
2019-03-17T04:45:54.224Z,84.56
2019-03-17T04:46:25.404Z,84.56
2019-03-17T04:46:56.588Z,84.28
2019-03-17T04:47:27.758Z,84.79
2019-03-17T04:47:58.976Z,84.72
2019-03-17T04:48:30.140Z,84.72
2019-03-17T04:49:01.413Z,84.54
2019-03-17T04:49:32.680Z,84.50
2019-03-17T04:50:05.849Z,84.20
2019-03-17T04:50:37.080Z,84.28
2019-03-17T04:51:08.242Z,84.28
2019-03-17T04:51:39.474Z,84.43
2019-03-17T04:52:10.632Z,84.43
2019-03-17T04:52:41.845Z,84.28
2019-03-17T04:53:13.005Z,84.24
2019-03-17T04:53:44.225Z,84.45
2019-03-17T04:54:15.389Z,84.35
2019-03-17T04:54:46.605Z,84.35
2019-03-17T04:55:17.772Z,83.97
2019-03-17T04:55:48.999Z,84.38
2019-03-17T04:56:21.209Z,84.38
2019-03-17T04:56:52.497Z,84.17
2019-03-17T04:57:24.809Z,84.18
2019-03-17T04:57:55.995Z,84.18
2019-03-17T04:58:27.151Z,83.87
2019-03-17T04:58:58.387Z,84.39
2019-03-17T04:59:29.553Z,84.39
2019-03-17T05:00:00.755Z,83.91
2019-03-17T05:00:31.904Z,84.07
2019-03-17T05:01:03.112Z,84.13
2019-03-17T05:01:34.268Z,84.13
2019-03-17T05:02:05.482Z,84.21
2019-03-17T05:02:36.635Z,83.87
2019-03-17T05:03:07.847Z,83.87
2019-03-17T05:03:39.010Z,84.12
2019-03-17T05:04:10.216Z,83.99
2019-03-17T05:04:41.418Z,84.51
2019-03-17T05:05:12.619Z,84.51
2019-03-17T05:05:44.781Z,83.95
2019-03-17T05:06:15.983Z,83.95
2019-03-17T05:06:52.406Z,84.22
2019-03-17T05:07:20.319Z,83.92
2019-03-17T05:07:51.536Z,83.95
2019-03-17T05:08:22.760Z,83.95
2019-03-17T05:08:55.240Z,84.11
2019-03-17T05:09:26.512Z,84.16
2019-03-17T05:09:57.812Z,83.98
2019-03-17T05:10:29.033Z,83.98
2019-03-17T05:11:00.263Z,84.15
2019-03-17T05:11:31.495Z,84.01
2019-03-17T05:12:02.942Z,84.00
2019-03-17T05:12:34.100Z,83.55
2019-03-17T05:13:05.321Z,83.55
2019-03-17T05:13:37.487Z,84.01
2019-03-17T05:14:08.714Z,83.77
2019-03-17T05:14:39.879Z,83.77
2019-03-17T05:15:11.089Z,83.88
2019-03-17T05:15:42.253Z,84.01
2019-03-17T05:16:13.475Z,83.69
2019-03-17T05:16:44.622Z,83.69
2019-03-17T05:17:15.838Z,83.78
2019-03-17T05:17:46.987Z,83.65
2019-03-17T05:18:18.186Z,83.70
2019-03-17T05:18:49.353Z,83.31
2019-03-17T05:19:20.527Z,83.61
2019-03-17T05:19:51.731Z,83.50
2019-03-17T05:20:22.887Z,83.50
2019-03-17T05:20:54.055Z,83.72
2019-03-17T05:21:25.389Z,83.80
2019-03-17T05:21:56.551Z,83.80
2019-03-17T05:22:27.746Z,83.44
2019-03-17T05:22:58.923Z,83.59
2019-03-17T05:23:30.197Z,83.59
2019-03-17T05:24:01.421Z,83.57
2019-03-17T05:24:32.591Z,83.50
2019-03-17T05:25:05.291Z,83.55
2019-03-17T05:25:36.468Z,83.44
2019-03-17T05:26:07.648Z,83.35
2019-03-17T05:26:38.821Z,83.50
2019-03-17T05:27:10.019Z,83.39
2019-03-17T05:27:41.183Z,83.34
2019-03-17T05:28:12.396Z,83.29
2019-03-17T05:28:43.553Z,83.36
2019-03-17T05:29:14.752Z,83.21
2019-03-17T05:29:45.920Z,83.09
2019-03-17T05:30:17.112Z,83.24
2019-03-17T05:30:48.278Z,83.24
2019-03-17T05:31:19.483Z,83.18
2019-03-17T05:31:50.648Z,83.20
2019-03-17T05:32:21.855Z,83.08
2019-03-17T05:32:53.008Z,83.07
2019-03-17T05:33:24.208Z,83.08
2019-03-17T05:33:55.370Z,83.02
2019-03-17T05:34:26.572Z,83.05
2019-03-17T05:34:57.744Z,82.92
2019-03-17T05:35:28.958Z,82.87
2019-03-17T05:36:00.122Z,82.89
2019-03-17T05:36:31.354Z,83.09
2019-03-17T05:37:06.621Z,83.09
2019-03-17T05:37:35.629Z,82.86
2019-03-17T05:38:06.810Z,82.80
2019-03-17T05:38:38.008Z,82.80
2019-03-17T05:39:09.177Z,82.87
2019-03-17T05:39:40.372Z,82.79
2019-03-17T05:40:11.532Z,82.82
2019-03-17T05:40:42.732Z,82.73
2019-03-17T05:41:13.899Z,82.41
2019-03-17T05:41:45.101Z,82.75
2019-03-17T05:42:16.289Z,82.54
2019-03-17T05:42:47.459Z,82.38
2019-03-17T05:43:18.648Z,82.38
2019-03-17T05:43:49.829Z,82.58
2019-03-17T05:44:21.109Z,82.50
2019-03-17T05:44:52.291Z,82.50
2019-03-17T05:45:23.476Z,82.44
2019-03-17T05:45:54.792Z,82.40
2019-03-17T05:46:26.080Z,82.41
2019-03-17T05:46:57.297Z,82.25
2019-03-17T05:47:28.471Z,82.23
2019-03-17T05:47:59.653Z,81.95
2019-03-17T05:48:30.989Z,82.11
2019-03-17T05:49:02.167Z,82.11
2019-03-17T05:49:33.435Z,82.05
2019-03-17T05:50:07.282Z,81.97
2019-03-17T05:50:38.445Z,81.94
2019-03-17T05:51:09.592Z,81.94
2019-03-17T05:51:40.789Z,81.79
2019-03-17T05:52:11.950Z,81.79
2019-03-17T05:52:43.123Z,81.88
2019-03-17T05:53:14.312Z,81.97
2019-03-17T05:53:45.498Z,81.38
2019-03-17T05:54:16.700Z,81.66
2019-03-17T05:54:47.888Z,81.48
2019-03-17T05:55:19.084Z,81.48
2019-03-17T05:55:50.265Z,81.55
2019-03-17T05:56:21.443Z,81.28
2019-03-17T05:56:52.640Z,81.25
2019-03-17T05:57:23.868Z,81.39
2019-03-17T05:57:55.244Z,81.40
2019-03-17T05:58:26.507Z,81.34
2019-03-17T05:58:57.654Z,81.23
2019-03-17T05:59:28.889Z,81.21
2019-03-17T06:00:00.078Z,81.26
2019-03-17T06:00:31.282Z,81.26
2019-03-17T06:01:02.460Z,81.08
2019-03-17T06:01:33.674Z,81.04
2019-03-17T06:02:04.846Z,80.99
2019-03-17T06:02:36.051Z,80.99
2019-03-17T06:03:07.224Z,80.64
2019-03-17T06:03:38.529Z,80.64
2019-03-17T06:04:09.687Z,81.16
2019-03-17T06:04:40.915Z,81.16
2019-03-17T06:05:12.173Z,80.83
2019-03-17T06:05:43.427Z,80.71
2019-03-17T06:06:14.586Z,80.71
2019-03-17T06:06:45.807Z,80.81
2019-03-17T06:07:18.896Z,80.81
2019-03-17T06:07:51.086Z,80.68
2019-03-17T06:08:22.240Z,80.40
2019-03-17T06:08:53.433Z,80.40
2019-03-17T06:09:24.589Z,80.41
2019-03-17T06:09:55.812Z,80.36
2019-03-17T06:10:26.971Z,80.43
2019-03-17T06:11:00.007Z,80.67
2019-03-17T06:11:32.169Z,80.67
2019-03-17T06:12:03.401Z,80.23
2019-03-17T06:12:34.601Z,80.23
2019-03-17T06:13:05.775Z,80.30
2019-03-17T06:13:36.959Z,80.35
2019-03-17T06:14:08.147Z,80.53
2019-03-17T06:14:39.334Z,80.53
2019-03-17T06:15:10.670Z,80.07
2019-03-17T06:15:41.832Z,80.36
2019-03-17T06:16:13.015Z,79.94
2019-03-17T06:16:44.194Z,79.94
2019-03-17T06:17:15.377Z,80.19
2019-03-17T06:17:46.572Z,80.35
2019-03-17T06:18:17.806Z,80.35
2019-03-17T06:18:49.001Z,80.29
2019-03-17T06:19:20.175Z,80.09
2019-03-17T06:19:51.332Z,79.70
2019-03-17T06:20:22.544Z,79.70
2019-03-17T06:20:53.732Z,79.82
2019-03-17T06:21:25.197Z,80.11
2019-03-17T06:22:00.372Z,80.11
2019-03-17T06:22:30.656Z,79.70
2019-03-17T06:23:01.900Z,79.62
2019-03-17T06:23:33.113Z,79.75
2019-03-17T06:24:04.298Z,79.72
2019-03-17T06:24:35.473Z,79.39
2019-03-17T06:25:09.733Z,79.52
2019-03-17T06:25:40.931Z,79.52
2019-03-17T06:26:12.123Z,79.37
2019-03-17T06:26:43.318Z,79.37
2019-03-17T06:27:14.514Z,79.58
2019-03-17T06:27:45.733Z,79.50
2019-03-17T06:28:16.918Z,79.13
2019-03-17T06:28:48.111Z,79.13
2019-03-17T06:29:19.381Z,79.21
2019-03-17T06:29:50.588Z,79.28
2019-03-17T06:30:21.827Z,79.26
2019-03-17T06:30:53.031Z,79.49
2019-03-17T06:31:24.187Z,79.49
2019-03-17T06:31:55.593Z,79.41
2019-03-17T06:32:26.755Z,79.22
2019-03-17T06:32:58.075Z,78.98
2019-03-17T06:33:29.227Z,78.98
2019-03-17T06:34:01.435Z,79.14
2019-03-17T06:34:32.593Z,79.14
2019-03-17T06:35:04.495Z,78.99
2019-03-17T06:35:35.662Z,79.07
2019-03-17T06:36:06.982Z,78.90
2019-03-17T06:36:38.146Z,78.90
2019-03-17T06:37:09.347Z,79.09
2019-03-17T06:37:41.498Z,78.97
2019-03-17T06:38:12.690Z,78.73
2019-03-17T06:38:43.850Z,78.77
2019-03-17T06:39:15.016Z,78.86
2019-03-17T06:39:46.212Z,78.91
2019-03-17T06:40:17.379Z,78.86
2019-03-17T06:40:48.538Z,78.94
2019-03-17T06:41:19.717Z,78.92
2019-03-17T06:41:50.918Z,78.72
2019-03-17T06:42:22.214Z,78.42
2019-03-17T06:42:53.400Z,78.28
2019-03-17T06:43:24.981Z,78.28
2019-03-17T06:43:56.138Z,78.12